sensor_id;sensor_type;location;lat;lon;timestamp;P1;durP1;ratioP1;P2;durP2;ratioP2
67776;SDS011;54576;52.020;5.536;2023-02-04T00:02:05;25.83;;;3.25;;
67776;SDS011;54576;52.020;5.536;2023-02-04T00:04:31;24.92;;;3.75;;
67776;SDS011;54576;52.020;5.536;2023-02-04T00:06:56;24.02;;;4.15;;
67776;SDS011;54576;52.020;5.536;2023-02-04T00:09:23;27.25;;;3.85;;
67776;SDS011;54576;52.020;5.536;2023-02-04T00:11:51;25.00;;;3.53;;
67776;SDS011;54576;52.020;5.536;2023-02-04T00:14:17;23.90;;;3.60;;
67776;SDS011;54576;52.020;5.536;2023-02-04T00:16:42;27.60;;;4.28;;
67776;SDS011;54576;52.020;5.536;2023-02-04T00:19:08;26.88;;;3.88;;
67776;SDS011;54576;52.020;5.536;2023-02-04T00:21:33;27.95;;;3.35;;
67776;SDS011;54576;52.020;5.536;2023-02-04T00:23:59;29.42;;;3.92;;
67776;SDS011;54576;52.020;5.536;2023-02-04T00:26:26;42.40;;;4.10;;
67776;SDS011;54576;52.020;5.536;2023-02-04T00:28:52;24.95;;;3.78;;
67776;SDS011;54576;52.020;5.536;2023-02-04T00:31:18;19.88;;;3.13;;
67776;SDS011;54576;52.020;5.536;2023-02-04T00:33:44;23.75;;;4.63;;
67776;SDS011;54576;52.020;5.536;2023-02-04T00:36:09;36.17;;;3.72;;
67776;SDS011;54576;52.020;5.536;2023-02-04T00:38:35;23.02;;;3.55;;
67776;SDS011;54576;52.020;5.536;2023-02-04T00:41:00;26.77;;;3.72;;
67776;SDS011;54576;52.020;5.536;2023-02-04T00:43:26;31.58;;;4.47;;
67776;SDS011;54576;52.020;5.536;2023-02-04T00:45:51;30.58;;;4.53;;
67776;SDS011;54576;52.020;5.536;2023-02-04T00:48:17;30.50;;;4.38;;
67776;SDS011;54576;52.020;5.536;2023-02-04T00:50:42;32.65;;;4.47;;
67776;SDS011;54576;52.020;5.536;2023-02-04T00:53:11;30.75;;;4.07;;
67776;SDS011;54576;52.020;5.536;2023-02-04T00:55:38;22.77;;;3.83;;
67776;SDS011;54576;52.020;5.536;2023-02-04T00:58:03;35.33;;;4.13;;
67776;SDS011;54576;52.020;5.536;2023-02-04T01:00:29;26.42;;;4.25;;
67776;SDS011;54576;52.020;5.536;2023-02-04T01:02:57;39.08;;;4.45;;
67776;SDS011;54576;52.020;5.536;2023-02-04T01:05:23;21.30;;;3.60;;
67776;SDS011;54576;52.020;5.536;2023-02-04T01:07:48;32.70;;;4.95;;
67776;SDS011;54576;52.020;5.536;2023-02-04T01:10:15;31.15;;;4.32;;
67776;SDS011;54576;52.020;5.536;2023-02-04T01:12:42;26.30;;;4.95;;
67776;SDS011;54576;52.020;5.536;2023-02-04T01:15:08;22.98;;;3.80;;
67776;SDS011;54576;52.020;5.536;2023-02-04T01:17:34;26.80;;;3.65;;
67776;SDS011;54576;52.020;5.536;2023-02-04T01:19:59;32.03;;;4.70;;
67776;SDS011;54576;52.020;5.536;2023-02-04T01:22:25;32.72;;;3.92;;
67776;SDS011;54576;52.020;5.536;2023-02-04T01:24:51;33.65;;;3.95;;
67776;SDS011;54576;52.020;5.536;2023-02-04T01:27:16;25.30;;;3.88;;
67776;SDS011;54576;52.020;5.536;2023-02-04T01:29:42;35.63;;;4.90;;
67776;SDS011;54576;52.020;5.536;2023-02-04T01:32:08;29.25;;;4.53;;
67776;SDS011;54576;52.020;5.536;2023-02-04T01:34:35;28.60;;;4.80;;
67776;SDS011;54576;52.020;5.536;2023-02-04T01:37:00;31.00;;;4.05;;
67776;SDS011;54576;52.020;5.536;2023-02-04T01:39:26;35.65;;;4.63;;
67776;SDS011;54576;52.020;5.536;2023-02-04T01:41:51;43.33;;;5.82;;
67776;SDS011;54576;52.020;5.536;2023-02-04T01:44:17;40.10;;;5.35;;
67776;SDS011;54576;52.020;5.536;2023-02-04T01:46:43;32.22;;;3.67;;
67776;SDS011;54576;52.020;5.536;2023-02-04T01:49:09;37.65;;;4.25;;
67776;SDS011;54576;52.020;5.536;2023-02-04T01:51:35;31.23;;;4.07;;
67776;SDS011;54576;52.020;5.536;2023-02-04T01:54:01;42.47;;;5.88;;
67776;SDS011;54576;52.020;5.536;2023-02-04T01:56:28;29.50;;;3.83;;
67776;SDS011;54576;52.020;5.536;2023-02-04T01:58:55;43.88;;;5.53;;
67776;SDS011;54576;52.020;5.536;2023-02-04T02:01:38;31.98;;;4.55;;
67776;SDS011;54576;52.020;5.536;2023-02-04T02:04:10;42.30;;;5.05;;
67776;SDS011;54576;52.020;5.536;2023-02-04T02:06:38;35.87;;;5.63;;
67776;SDS011;54576;52.020;5.536;2023-02-04T02:09:06;34.13;;;4.63;;
67776;SDS011;54576;52.020;5.536;2023-02-04T02:11:33;38.90;;;5.20;;
67776;SDS011;54576;52.020;5.536;2023-02-04T02:13:59;34.35;;;4.70;;
67776;SDS011;54576;52.020;5.536;2023-02-04T02:16:25;48.25;;;5.03;;
67776;SDS011;54576;52.020;5.536;2023-02-04T02:18:51;43.97;;;4.78;;
67776;SDS011;54576;52.020;5.536;2023-02-04T02:21:18;42.40;;;6.13;;
67776;SDS011;54576;52.020;5.536;2023-02-04T02:23:51;42.22;;;5.25;;
67776;SDS011;54576;52.020;5.536;2023-02-04T02:26:21;34.15;;;4.85;;
67776;SDS011;54576;52.020;5.536;2023-02-04T02:28:48;43.58;;;4.75;;
67776;SDS011;54576;52.020;5.536;2023-02-04T02:31:15;33.95;;;5.03;;
67776;SDS011;54576;52.020;5.536;2023-02-04T02:33:43;40.05;;;4.60;;
67776;SDS011;54576;52.020;5.536;2023-02-04T02:36:10;40.35;;;5.20;;
67776;SDS011;54576;52.020;5.536;2023-02-04T02:38:37;47.45;;;5.05;;
67776;SDS011;54576;52.020;5.536;2023-02-04T02:41:03;38.25;;;4.95;;
67776;SDS011;54576;52.020;5.536;2023-02-04T02:43:34;38.00;;;5.65;;
67776;SDS011;54576;52.020;5.536;2023-02-04T02:46:01;38.55;;;4.55;;
67776;SDS011;54576;52.020;5.536;2023-02-04T02:48:27;42.53;;;4.78;;
67776;SDS011;54576;52.020;5.536;2023-02-04T02:50:53;33.63;;;5.28;;
67776;SDS011;54576;52.020;5.536;2023-02-04T02:53:19;39.35;;;4.43;;
67776;SDS011;54576;52.020;5.536;2023-02-04T02:55:45;40.47;;;5.30;;
67776;SDS011;54576;52.020;5.536;2023-02-04T02:58:15;34.50;;;4.28;;
67776;SDS011;54576;52.020;5.536;2023-02-04T03:00:44;41.05;;;4.85;;
67776;SDS011;54576;52.020;5.536;2023-02-04T03:03:11;50.08;;;5.63;;
67776;SDS011;54576;52.020;5.536;2023-02-04T03:05:42;42.05;;;5.38;;
67776;SDS011;54576;52.020;5.536;2023-02-04T03:08:10;35.28;;;4.90;;
67776;SDS011;54576;52.020;5.536;2023-02-04T03:10:38;44.80;;;4.65;;
67776;SDS011;54576;52.020;5.536;2023-02-04T03:13:04;46.33;;;6.25;;
67776;SDS011;54576;52.020;5.536;2023-02-04T03:15:30;41.92;;;6.72;;
67776;SDS011;54576;52.020;5.536;2023-02-04T03:17:56;41.35;;;4.78;;
67776;SDS011;54576;52.020;5.536;2023-02-04T03:20:23;50.42;;;5.85;;
67776;SDS011;54576;52.020;5.536;2023-02-04T03:22:51;44.92;;;6.40;;
67776;SDS011;54576;52.020;5.536;2023-02-04T03:25:18;48.80;;;5.05;;
67776;SDS011;54576;52.020;5.536;2023-02-04T03:27:44;39.28;;;5.70;;
67776;SDS011;54576;52.020;5.536;2023-02-04T03:30:10;50.05;;;6.28;;
67776;SDS011;54576;52.020;5.536;2023-02-04T03:32:38;51.70;;;6.25;;
67776;SDS011;54576;52.020;5.536;2023-02-04T03:35:05;36.35;;;4.55;;
67776;SDS011;54576;52.020;5.536;2023-02-04T03:37:31;48.40;;;5.88;;
67776;SDS011;54576;52.020;5.536;2023-02-04T03:39:56;37.22;;;4.93;;
67776;SDS011;54576;52.020;5.536;2023-02-04T03:42:22;49.65;;;5.57;;
67776;SDS011;54576;52.020;5.536;2023-02-04T03:44:48;42.67;;;5.60;;
67776;SDS011;54576;52.020;5.536;2023-02-04T03:47:14;37.75;;;5.07;;
67776;SDS011;54576;52.020;5.536;2023-02-04T03:49:39;50.25;;;6.22;;
67776;SDS011;54576;52.020;5.536;2023-02-04T03:52:08;37.78;;;5.13;;
67776;SDS011;54576;52.020;5.536;2023-02-04T03:54:33;43.45;;;5.28;;
67776;SDS011;54576;52.020;5.536;2023-02-04T03:56:59;51.88;;;6.32;;
67776;SDS011;54576;52.020;5.536;2023-02-04T03:59:24;44.90;;;5.88;;
67776;SDS011;54576;52.020;5.536;2023-02-04T04:01:50;45.83;;;6.00;;
67776;SDS011;54576;52.020;5.536;2023-02-04T04:04:16;34.38;;;5.15;;
67776;SDS011;54576;52.020;5.536;2023-02-04T04:06:42;41.42;;;5.88;;
67776;SDS011;54576;52.020;5.536;2023-02-04T04:09:08;44.97;;;6.18;;
67776;SDS011;54576;52.020;5.536;2023-02-04T04:11:33;42.20;;;5.38;;
67776;SDS011;54576;52.020;5.536;2023-02-04T04:13:59;36.55;;;5.47;;
67776;SDS011;54576;52.020;5.536;2023-02-04T04:16:25;52.13;;;6.10;;
67776;SDS011;54576;52.020;5.536;2023-02-04T04:18:51;52.72;;;5.95;;
67776;SDS011;54576;52.020;5.536;2023-02-04T04:21:16;49.03;;;6.20;;
67776;SDS011;54576;52.020;5.536;2023-02-04T04:23:42;43.60;;;6.03;;
67776;SDS011;54576;52.020;5.536;2023-02-04T04:26:07;33.85;;;4.35;;
67776;SDS011;54576;52.020;5.536;2023-02-04T04:28:33;34.42;;;5.40;;
67776;SDS011;54576;52.020;5.536;2023-02-04T04:30:58;32.67;;;5.07;;
67776;SDS011;54576;52.020;5.536;2023-02-04T04:33:24;32.53;;;4.80;;
67776;SDS011;54576;52.020;5.536;2023-02-04T04:35:50;32.35;;;5.28;;
67776;SDS011;54576;52.020;5.536;2023-02-04T04:38:15;34.67;;;4.93;;
67776;SDS011;54576;52.020;5.536;2023-02-04T04:40:41;38.38;;;6.35;;
67776;SDS011;54576;52.020;5.536;2023-02-04T04:43:06;33.72;;;3.83;;
67776;SDS011;54576;52.020;5.536;2023-02-04T04:45:32;30.17;;;3.88;;
67776;SDS011;54576;52.020;5.536;2023-02-04T04:47:57;42.00;;;4.75;;
67776;SDS011;54576;52.020;5.536;2023-02-04T04:50:23;34.13;;;4.32;;
67776;SDS011;54576;52.020;5.536;2023-02-04T04:52:49;29.73;;;4.15;;
67776;SDS011;54576;52.020;5.536;2023-02-04T04:55:14;27.60;;;4.55;;
67776;SDS011;54576;52.020;5.536;2023-02-04T04:57:40;24.42;;;4.63;;
67776;SDS011;54576;52.020;5.536;2023-02-04T05:00:07;38.50;;;4.38;;
67776;SDS011;54576;52.020;5.536;2023-02-04T05:02:35;32.67;;;4.72;;
67776;SDS011;54576;52.020;5.536;2023-02-04T05:05:01;36.90;;;5.28;;
67776;SDS011;54576;52.020;5.536;2023-02-04T05:07:26;40.25;;;5.10;;
67776;SDS011;54576;52.020;5.536;2023-02-04T05:09:52;29.00;;;4.70;;
67776;SDS011;54576;52.020;5.536;2023-02-04T05:12:18;38.70;;;4.70;;
67776;SDS011;54576;52.020;5.536;2023-02-04T05:14:43;40.08;;;3.97;;
67776;SDS011;54576;52.020;5.536;2023-02-04T05:17:09;27.77;;;4.82;;
67776;SDS011;54576;52.020;5.536;2023-02-04T05:19:36;37.17;;;4.47;;
67776;SDS011;54576;52.020;5.536;2023-02-04T05:22:03;33.95;;;4.22;;
67776;SDS011;54576;52.020;5.536;2023-02-04T05:24:29;30.23;;;3.97;;
67776;SDS011;54576;52.020;5.536;2023-02-04T05:26:54;42.70;;;4.65;;
67776;SDS011;54576;52.020;5.536;2023-02-04T05:29:20;28.45;;;3.45;;
67776;SDS011;54576;52.020;5.536;2023-02-04T05:31:45;36.90;;;4.47;;
67776;SDS011;54576;52.020;5.536;2023-02-04T05:34:11;27.08;;;3.92;;
67776;SDS011;54576;52.020;5.536;2023-02-04T05:36:36;29.25;;;4.47;;
67776;SDS011;54576;52.020;5.536;2023-02-04T05:39:05;33.13;;;4.13;;
67776;SDS011;54576;52.020;5.536;2023-02-04T05:41:30;26.58;;;3.80;;
67776;SDS011;54576;52.020;5.536;2023-02-04T05:43:56;36.75;;;5.30;;
67776;SDS011;54576;52.020;5.536;2023-02-04T05:46:22;30.40;;;3.95;;
67776;SDS011;54576;52.020;5.536;2023-02-04T05:48:47;34.42;;;4.00;;
67776;SDS011;54576;52.020;5.536;2023-02-04T05:51:13;27.63;;;4.20;;
67776;SDS011;54576;52.020;5.536;2023-02-04T05:53:38;32.65;;;4.80;;
67776;SDS011;54576;52.020;5.536;2023-02-04T05:56:04;35.58;;;4.50;;
67776;SDS011;54576;52.020;5.536;2023-02-04T05:58:30;44.20;;;4.63;;
67776;SDS011;54576;52.020;5.536;2023-02-04T06:01:00;34.92;;;4.55;;
67776;SDS011;54576;52.020;5.536;2023-02-04T06:05:53;26.23;;;4.10;;
67776;SDS011;54576;52.020;5.536;2023-02-04T06:08:18;28.98;;;3.83;;
67776;SDS011;54576;52.020;5.536;2023-02-04T06:10:44;40.67;;;5.00;;
67776;SDS011;54576;52.020;5.536;2023-02-04T06:13:09;35.75;;;4.55;;
67776;SDS011;54576;52.020;5.536;2023-02-04T06:15:35;33.35;;;4.50;;
67776;SDS011;54576;52.020;5.536;2023-02-04T06:18:01;22.98;;;4.05;;
67776;SDS011;54576;52.020;5.536;2023-02-04T06:20:27;21.48;;;3.50;;
67776;SDS011;54576;52.020;5.536;2023-02-04T06:22:53;32.95;;;4.65;;
67776;SDS011;54576;52.020;5.536;2023-02-04T06:25:21;32.90;;;4.00;;
67776;SDS011;54576;52.020;5.536;2023-02-04T06:27:48;33.05;;;5.18;;
67776;SDS011;54576;52.020;5.536;2023-02-04T06:30:14;28.13;;;3.90;;
67776;SDS011;54576;52.020;5.536;2023-02-04T06:32:40;27.92;;;3.58;;
67776;SDS011;54576;52.020;5.536;2023-02-04T06:35:06;24.88;;;4.00;;
67776;SDS011;54576;52.020;5.536;2023-02-04T06:37:34;31.95;;;3.80;;
67776;SDS011;54576;52.020;5.536;2023-02-04T06:39:59;29.73;;;4.03;;
67776;SDS011;54576;52.020;5.536;2023-02-04T06:42:25;30.13;;;3.72;;
67776;SDS011;54576;52.020;5.536;2023-02-04T06:44:51;37.50;;;5.65;;
67776;SDS011;54576;52.020;5.536;2023-02-04T06:47:17;41.17;;;5.43;;
67776;SDS011;54576;52.020;5.536;2023-02-04T06:49:43;29.35;;;3.83;;
67776;SDS011;54576;52.020;5.536;2023-02-04T06:52:09;37.38;;;4.45;;
67776;SDS011;54576;52.020;5.536;2023-02-04T06:54:35;30.15;;;4.85;;
67776;SDS011;54576;52.020;5.536;2023-02-04T06:57:01;30.35;;;4.10;;
67776;SDS011;54576;52.020;5.536;2023-02-04T06:59:34;43.83;;;5.38;;
67776;SDS011;54576;52.020;5.536;2023-02-04T07:02:04;25.30;;;4.32;;
67776;SDS011;54576;52.020;5.536;2023-02-04T07:04:31;42.88;;;4.93;;
67776;SDS011;54576;52.020;5.536;2023-02-04T07:06:58;37.22;;;6.22;;
67776;SDS011;54576;52.020;5.536;2023-02-04T07:09:23;42.20;;;6.18;;
67776;SDS011;54576;52.020;5.536;2023-02-04T07:11:49;35.90;;;5.10;;
67776;SDS011;54576;52.020;5.536;2023-02-04T07:14:15;50.83;;;6.95;;
67776;SDS011;54576;52.020;5.536;2023-02-04T07:16:40;39.03;;;5.22;;
67776;SDS011;54576;52.020;5.536;2023-02-04T07:19:06;42.97;;;5.20;;
67776;SDS011;54576;52.020;5.536;2023-02-04T07:21:31;42.40;;;6.47;;
67776;SDS011;54576;52.020;5.536;2023-02-04T07:23:57;53.25;;;5.07;;
67776;SDS011;54576;52.020;5.536;2023-02-04T07:26:23;31.80;;;5.10;;
67776;SDS011;54576;52.020;5.536;2023-02-04T07:28:48;47.53;;;5.60;;
67776;SDS011;54576;52.020;5.536;2023-02-04T07:31:14;47.30;;;5.38;;
67776;SDS011;54576;52.020;5.536;2023-02-04T07:33:40;37.00;;;5.82;;
67776;SDS011;54576;52.020;5.536;2023-02-04T07:36:05;32.75;;;4.63;;
67776;SDS011;54576;52.020;5.536;2023-02-04T07:38:31;40.47;;;6.55;;
67776;SDS011;54576;52.020;5.536;2023-02-04T07:40:57;42.85;;;6.85;;
67776;SDS011;54576;52.020;5.536;2023-02-04T07:43:22;34.60;;;8.20;;
67776;SDS011;54576;52.020;5.536;2023-02-04T07:45:48;60.15;;;8.05;;
67776;SDS011;54576;52.020;5.536;2023-02-04T07:48:14;42.15;;;7.53;;
67776;SDS011;54576;52.020;5.536;2023-02-04T07:50:39;46.08;;;9.13;;
67776;SDS011;54576;52.020;5.536;2023-02-04T07:53:05;49.50;;;9.02;;
67776;SDS011;54576;52.020;5.536;2023-02-04T07:55:30;56.58;;;12.60;;
67776;SDS011;54576;52.020;5.536;2023-02-04T07:57:56;53.33;;;11.30;;
67776;SDS011;54576;52.020;5.536;2023-02-04T08:00:21;59.13;;;9.88;;
67776;SDS011;54576;52.020;5.536;2023-02-04T08:02:47;42.65;;;6.05;;
67776;SDS011;54576;52.020;5.536;2023-02-04T08:05:13;56.88;;;7.20;;
67776;SDS011;54576;52.020;5.536;2023-02-04T08:07:39;36.03;;;5.82;;
67776;SDS011;54576;52.020;5.536;2023-02-04T08:10:05;52.47;;;6.70;;
67776;SDS011;54576;52.020;5.536;2023-02-04T08:12:31;42.90;;;6.65;;
67776;SDS011;54576;52.020;5.536;2023-02-04T08:14:57;37.28;;;6.03;;
67776;SDS011;54576;52.020;5.536;2023-02-04T08:17:23;42.58;;;6.78;;
67776;SDS011;54576;52.020;5.536;2023-02-04T08:19:51;42.72;;;7.15;;
67776;SDS011;54576;52.020;5.536;2023-02-04T08:22:17;45.67;;;8.70;;
67776;SDS011;54576;52.020;5.536;2023-02-04T08:24:42;43.72;;;8.02;;
67776;SDS011;54576;52.020;5.536;2023-02-04T08:27:08;41.38;;;7.22;;
67776;SDS011;54576;52.020;5.536;2023-02-04T08:29:33;47.10;;;10.27;;
67776;SDS011;54576;52.020;5.536;2023-02-04T08:31:59;102.93;;;32.35;;
67776;SDS011;54576;52.020;5.536;2023-02-04T08:34:24;108.28;;;31.58;;
67776;SDS011;54576;52.020;5.536;2023-02-04T08:36:50;53.15;;;11.88;;
67776;SDS011;54576;52.020;5.536;2023-02-04T08:39:15;48.25;;;8.38;;
67776;SDS011;54576;52.020;5.536;2023-02-04T08:41:41;51.05;;;10.25;;
67776;SDS011;54576;52.020;5.536;2023-02-04T08:44:06;28.92;;;5.78;;
67776;SDS011;54576;52.020;5.536;2023-02-04T08:46:32;41.60;;;7.05;;
67776;SDS011;54576;52.020;5.536;2023-02-04T08:48:58;40.00;;;5.97;;
67776;SDS011;54576;52.020;5.536;2023-02-04T08:51:23;42.55;;;6.03;;
67776;SDS011;54576;52.020;5.536;2023-02-04T08:53:49;35.30;;;7.15;;
67776;SDS011;54576;52.020;5.536;2023-02-04T08:56:14;40.17;;;7.00;;
67776;SDS011;54576;52.020;5.536;2023-02-04T08:58:42;44.28;;;7.22;;
67776;SDS011;54576;52.020;5.536;2023-02-04T09:01:08;43.58;;;6.88;;
67776;SDS011;54576;52.020;5.536;2023-02-04T09:03:35;45.55;;;6.95;;
67776;SDS011;54576;52.020;5.536;2023-02-04T09:06:01;40.67;;;7.20;;
67776;SDS011;54576;52.020;5.536;2023-02-04T09:08:28;39.78;;;7.40;;
67776;SDS011;54576;52.020;5.536;2023-02-04T09:10:53;57.10;;;7.82;;
67776;SDS011;54576;52.020;5.536;2023-02-04T09:13:19;49.53;;;8.05;;
67776;SDS011;54576;52.020;5.536;2023-02-04T09:15:44;61.58;;;13.57;;
67776;SDS011;54576;52.020;5.536;2023-02-04T09:18:10;50.63;;;8.57;;
67776;SDS011;54576;52.020;5.536;2023-02-04T09:20:47;43.95;;;6.55;;
67776;SDS011;54576;52.020;5.536;2023-02-04T09:23:13;50.53;;;7.88;;
67776;SDS011;54576;52.020;5.536;2023-02-04T09:25:40;46.20;;;7.57;;
67776;SDS011;54576;52.020;5.536;2023-02-04T09:28:07;41.97;;;8.85;;
67776;SDS011;54576;52.020;5.536;2023-02-04T09:30:37;49.60;;;8.45;;
67776;SDS011;54576;52.020;5.536;2023-02-04T09:33:03;47.20;;;7.63;;
67776;SDS011;54576;52.020;5.536;2023-02-04T09:35:29;51.65;;;7.75;;
67776;SDS011;54576;52.020;5.536;2023-02-04T09:37:55;48.67;;;7.53;;
67776;SDS011;54576;52.020;5.536;2023-02-04T09:40:21;53.08;;;7.03;;
67776;SDS011;54576;52.020;5.536;2023-02-04T09:42:47;43.72;;;8.75;;
67776;SDS011;54576;52.020;5.536;2023-02-04T09:45:15;46.15;;;7.00;;
67776;SDS011;54576;52.020;5.536;2023-02-04T09:47:47;35.92;;;6.32;;
67776;SDS011;54576;52.020;5.536;2023-02-04T09:50:14;44.20;;;6.88;;
67776;SDS011;54576;52.020;5.536;2023-02-04T09:52:42;42.50;;;7.03;;
67776;SDS011;54576;52.020;5.536;2023-02-04T09:55:12;53.92;;;7.43;;
67776;SDS011;54576;52.020;5.536;2023-02-04T09:57:38;43.28;;;6.47;;
67776;SDS011;54576;52.020;5.536;2023-02-04T10:00:09;43.35;;;7.40;;
67776;SDS011;54576;52.020;5.536;2023-02-04T10:02:39;48.75;;;6.97;;
67776;SDS011;54576;52.020;5.536;2023-02-04T10:05:08;46.25;;;5.50;;
67776;SDS011;54576;52.020;5.536;2023-02-04T10:07:38;40.70;;;6.63;;
67776;SDS011;54576;52.020;5.536;2023-02-04T10:10:04;50.42;;;6.63;;
67776;SDS011;54576;52.020;5.536;2023-02-04T10:12:30;36.08;;;5.80;;
67776;SDS011;54576;52.020;5.536;2023-02-04T10:14:56;49.40;;;7.43;;
67776;SDS011;54576;52.020;5.536;2023-02-04T10:17:22;41.47;;;6.22;;
67776;SDS011;54576;52.020;5.536;2023-02-04T10:19:47;58.90;;;6.82;;
67776;SDS011;54576;52.020;5.536;2023-02-04T10:22:18;37.75;;;5.35;;
67776;SDS011;54576;52.020;5.536;2023-02-04T10:24:48;65.80;;;6.78;;
67776;SDS011;54576;52.020;5.536;2023-02-04T10:27:13;41.00;;;7.28;;
67776;SDS011;54576;52.020;5.536;2023-02-04T10:29:40;51.58;;;7.22;;
67776;SDS011;54576;52.020;5.536;2023-02-04T10:32:23;58.92;;;6.82;;
67776;SDS011;54576;52.020;5.536;2023-02-04T10:34:58;61.55;;;6.68;;
67776;SDS011;54576;52.020;5.536;2023-02-04T10:37:25;48.35;;;5.95;;
67776;SDS011;54576;52.020;5.536;2023-02-04T10:39:51;53.45;;;6.85;;
67776;SDS011;54576;52.020;5.536;2023-02-04T10:42:23;47.38;;;6.47;;
67776;SDS011;54576;52.020;5.536;2023-02-04T10:44:50;35.80;;;5.50;;
67776;SDS011;54576;52.020;5.536;2023-02-04T10:47:34;47.17;;;6.43;;
67776;SDS011;54576;52.020;5.536;2023-02-04T10:50:01;38.30;;;6.75;;
67776;SDS011;54576;52.020;5.536;2023-02-04T10:52:34;43.20;;;6.75;;
67776;SDS011;54576;52.020;5.536;2023-02-04T10:55:02;43.63;;;6.47;;
67776;SDS011;54576;52.020;5.536;2023-02-04T10:57:28;39.45;;;6.28;;
67776;SDS011;54576;52.020;5.536;2023-02-04T11:00:03;47.13;;;6.00;;
67776;SDS011;54576;52.020;5.536;2023-02-04T11:05:16;48.00;;;8.55;;
67776;SDS011;54576;52.020;5.536;2023-02-04T11:07:44;40.85;;;6.03;;
67776;SDS011;54576;52.020;5.536;2023-02-04T11:10:12;48.92;;;6.00;;
67776;SDS011;54576;52.020;5.536;2023-02-04T11:15:36;41.10;;;5.57;;
67776;SDS011;54576;52.020;5.536;2023-02-04T11:20:45;38.33;;;6.22;;
67776;SDS011;54576;52.020;5.536;2023-02-04T11:25:41;44.30;;;5.53;;
67776;SDS011;54576;52.020;5.536;2023-02-04T11:28:25;53.20;;;6.30;;
67776;SDS011;54576;52.020;5.536;2023-02-04T11:30:58;34.85;;;6.35;;
67776;SDS011;54576;52.020;5.536;2023-02-04T11:33:32;36.22;;;5.90;;
67776;SDS011;54576;52.020;5.536;2023-02-04T11:36:03;52.35;;;8.50;;
67776;SDS011;54576;52.020;5.536;2023-02-04T11:38:31;34.07;;;6.57;;
67776;SDS011;54576;52.020;5.536;2023-02-04T11:40:57;46.53;;;6.95;;
67776;SDS011;54576;52.020;5.536;2023-02-04T11:43:24;35.92;;;5.63;;
67776;SDS011;54576;52.020;5.536;2023-02-04T11:46:01;54.28;;;6.07;;
67776;SDS011;54576;52.020;5.536;2023-02-04T11:48:38;40.22;;;6.35;;
67776;SDS011;54576;52.020;5.536;2023-02-04T11:51:10;37.80;;;5.25;;
67776;SDS011;54576;52.020;5.536;2023-02-04T11:53:39;38.13;;;5.68;;
67776;SDS011;54576;52.020;5.536;2023-02-04T11:56:04;48.25;;;7.43;;
67776;SDS011;54576;52.020;5.536;2023-02-04T11:58:32;44.97;;;5.63;;
67776;SDS011;54576;52.020;5.536;2023-02-04T12:01:03;42.92;;;5.65;;
67776;SDS011;54576;52.020;5.536;2023-02-04T12:03:32;43.70;;;5.93;;
67776;SDS011;54576;52.020;5.536;2023-02-04T12:06:09;42.70;;;5.95;;
67776;SDS011;54576;52.020;5.536;2023-02-04T12:08:45;36.58;;;5.95;;
67776;SDS011;54576;52.020;5.536;2023-02-04T12:11:12;52.47;;;5.60;;
67776;SDS011;54576;52.020;5.536;2023-02-04T12:13:54;37.38;;;5.57;;
67776;SDS011;54576;52.020;5.536;2023-02-04T12:16:21;43.65;;;5.50;;
67776;SDS011;54576;52.020;5.536;2023-02-04T12:18:47;44.72;;;7.32;;
67776;SDS011;54576;52.020;5.536;2023-02-04T12:21:13;41.97;;;5.60;;
67776;SDS011;54576;52.020;5.536;2023-02-04T12:23:40;32.45;;;5.00;;
67776;SDS011;54576;52.020;5.536;2023-02-04T12:26:08;41.05;;;6.57;;
67776;SDS011;54576;52.020;5.536;2023-02-04T12:28:35;40.42;;;5.65;;
67776;SDS011;54576;52.020;5.536;2023-02-04T12:31:03;34.35;;;5.25;;
67776;SDS011;54576;52.020;5.536;2023-02-04T12:33:30;32.90;;;4.78;;
67776;SDS011;54576;52.020;5.536;2023-02-04T12:35:56;43.15;;;5.75;;
67776;SDS011;54576;52.020;5.536;2023-02-04T12:38:21;69.22;;;22.73;;
67776;SDS011;54576;52.020;5.536;2023-02-04T12:40:49;47.95;;;15.15;;
67776;SDS011;54576;52.020;5.536;2023-02-04T12:43:15;34.13;;;7.50;;
67776;SDS011;54576;52.020;5.536;2023-02-04T12:45:41;37.35;;;7.28;;
67776;SDS011;54576;52.020;5.536;2023-02-04T12:50:37;40.28;;;7.93;;
67776;SDS011;54576;52.020;5.536;2023-02-04T12:53:03;41.40;;;5.68;;
67776;SDS011;54576;52.020;5.536;2023-02-04T12:55:30;42.30;;;9.00;;
67776;SDS011;54576;52.020;5.536;2023-02-04T12:57:55;31.25;;;6.03;;
67776;SDS011;54576;52.020;5.536;2023-02-04T13:00:23;40.78;;;5.18;;
67776;SDS011;54576;52.020;5.536;2023-02-04T13:02:51;31.02;;;5.78;;
67776;SDS011;54576;52.020;5.536;2023-02-04T13:05:23;42.83;;;6.10;;
67776;SDS011;54576;52.020;5.536;2023-02-04T13:07:49;39.75;;;6.05;;
67776;SDS011;54576;52.020;5.536;2023-02-04T13:10:15;48.47;;;5.22;;
67776;SDS011;54576;52.020;5.536;2023-02-04T13:12:46;39.88;;;5.68;;
67776;SDS011;54576;52.020;5.536;2023-02-04T13:15:12;36.85;;;5.50;;
67776;SDS011;54576;52.020;5.536;2023-02-04T13:17:40;39.92;;;6.43;;
67776;SDS011;54576;52.020;5.536;2023-02-04T13:20:06;40.45;;;5.65;;
67776;SDS011;54576;52.020;5.536;2023-02-04T13:22:32;51.47;;;5.88;;
67776;SDS011;54576;52.020;5.536;2023-02-04T13:24:58;34.92;;;5.57;;
67776;SDS011;54576;52.020;5.536;2023-02-04T13:27:23;30.02;;;5.07;;
67776;SDS011;54576;52.020;5.536;2023-02-04T13:29:49;36.75;;;5.57;;
67776;SDS011;54576;52.020;5.536;2023-02-04T13:32:15;46.25;;;6.22;;
67776;SDS011;54576;52.020;5.536;2023-02-04T13:34:40;45.45;;;6.60;;
67776;SDS011;54576;52.020;5.536;2023-02-04T13:37:06;41.72;;;5.40;;
67776;SDS011;54576;52.020;5.536;2023-02-04T13:39:31;43.10;;;5.57;;
67776;SDS011;54576;52.020;5.536;2023-02-04T13:41:57;42.33;;;6.82;;
67776;SDS011;54576;52.020;5.536;2023-02-04T13:44:22;31.70;;;5.50;;
67776;SDS011;54576;52.020;5.536;2023-02-04T13:46:48;38.38;;;5.18;;
67776;SDS011;54576;52.020;5.536;2023-02-04T13:49:14;34.05;;;4.88;;
67776;SDS011;54576;52.020;5.536;2023-02-04T13:51:39;53.83;;;6.65;;
67776;SDS011;54576;52.020;5.536;2023-02-04T13:54:05;43.42;;;5.28;;
67776;SDS011;54576;52.020;5.536;2023-02-04T13:56:30;42.72;;;6.60;;
67776;SDS011;54576;52.020;5.536;2023-02-04T13:58:57;39.95;;;6.05;;
67776;SDS011;54576;52.020;5.536;2023-02-04T14:03:52;26.15;;;4.95;;
67776;SDS011;54576;52.020;5.536;2023-02-04T14:06:19;37.80;;;5.65;;
67776;SDS011;54576;52.020;5.536;2023-02-04T14:08:47;44.40;;;6.20;;
67776;SDS011;54576;52.020;5.536;2023-02-04T14:11:14;51.15;;;7.15;;
67776;SDS011;54576;52.020;5.536;2023-02-04T14:13:40;48.55;;;6.38;;
67776;SDS011;54576;52.020;5.536;2023-02-04T14:16:05;37.15;;;5.13;;
67776;SDS011;54576;52.020;5.536;2023-02-04T14:18:33;31.77;;;5.85;;
67776;SDS011;54576;52.020;5.536;2023-02-04T14:21:00;42.15;;;7.65;;
67776;SDS011;54576;52.020;5.536;2023-02-04T14:23:26;49.22;;;6.63;;
67776;SDS011;54576;52.020;5.536;2023-02-04T14:25:51;38.55;;;4.88;;
67776;SDS011;54576;52.020;5.536;2023-02-04T14:28:17;44.22;;;5.22;;
67776;SDS011;54576;52.020;5.536;2023-02-04T14:30:43;37.72;;;5.47;;
67776;SDS011;54576;52.020;5.536;2023-02-04T14:33:08;32.85;;;4.78;;
67776;SDS011;54576;52.020;5.536;2023-02-04T14:35:34;44.83;;;6.15;;
67776;SDS011;54576;52.020;5.536;2023-02-04T14:38:01;44.55;;;5.15;;
67776;SDS011;54576;52.020;5.536;2023-02-04T14:40:27;34.80;;;5.40;;
67776;SDS011;54576;52.020;5.536;2023-02-04T14:42:53;45.55;;;5.13;;
67776;SDS011;54576;52.020;5.536;2023-02-04T14:45:18;40.03;;;5.70;;
67776;SDS011;54576;52.020;5.536;2023-02-04T14:47:44;44.28;;;6.85;;
67776;SDS011;54576;52.020;5.536;2023-02-04T14:50:11;41.63;;;5.28;;